Time;durP1;ratioP1;P1;durP2;ratioP2;P2;SDS_P1;SDS_P2;PMS_P1;PMS_P2;Temp;Humidity;BMP_temperature;BMP_pressure;BME280_temperature;BME280_humidity;BME280_pressure;Samples;Min_cycle;Max_cycle;Signal;HPM_P1;HPM_P2
2021/08/31 00:02:17;;;;;;;47.90;26.92;;;;;;;16.96;89.04;99023.00;4751326;30;20047;-62
2021/08/31 00:04:43;;;;;;;54.53;26.42;;;;;;;17.00;88.79;99026.72;4750980;30;20052;-62
2021/08/31 00:07:09;;;;;;;49.72;24.65;;;;;;;17.00;88.77;99029.38;4750967;30;20044;-62
2021/08/31 00:09:35;;;;;;;54.00;25.30;;;;;;;16.99;88.93;99025.09;4750554;30;20133;-63
2021/08/31 00:12:00;;;;;;;55.45;26.35;;;;;;;16.97;88.93;99024.59;4749858;30;20079;-61
2021/08/31 00:14:26;;;;;;;49.45;26.02;;;;;;;16.96;89.00;99031.03;4750674;30;20098;-62
2021/08/31 00:16:52;;;;;;;49.20;27.00;;;;;;;16.97;88.73;99029.13;4734993;30;20059;-61
2021/08/31 00:19:18;;;;;;;45.78;25.85;;;;;;;16.98;88.85;99050.28;4749698;30;20052;-62
2021/08/31 00:21:44;;;;;;;42.50;25.27;;;;;;;17.01;88.53;99048.91;4750979;30;20115;-62
2021/08/31 00:24:10;;;;;;;44.20;25.50;;;;;;;17.03;88.18;99047.56;4749569;30;20476;-61
2021/08/31 00:26:36;;;;;;;50.08;26.27;;;;;;;17.08;88.29;99045.88;4751064;30;20044;-62
2021/08/31 00:29:05;;;;;;;46.63;23.95;;;;;;;16.97;88.35;99021.94;4750566;30;20583;-63
2021/08/31 00:31:30;;;;;;;44.42;24.98;;;;;;;17.10;88.22;99041.03;4750761;30;20048;-61
2021/08/31 00:33:56;;;;;;;44.63;25.10;;;;;;;17.05;88.14;99038.41;4750687;30;20147;-62
2021/08/31 00:36:22;;;;;;;41.78;24.45;;;;;;;17.02;88.37;99031.75;4750560;30;20515;-61
2021/08/31 00:38:48;;;;;;;43.50;23.90;;;;;;;17.00;88.53;99036.59;4750775;30;20044;-63
2021/08/31 00:41:14;;;;;;;40.25;23.45;;;;;;;17.00;88.24;99037.41;4748657;30;20143;-60
2021/08/31 00:43:48;;;;;;;48.10;25.33;;;;;;;16.99;88.37;99045.72;4750390;30;20153;-59
2021/08/31 00:46:19;;;;;;;38.15;23.20;;;;;;;16.96;88.10;99032.91;4750927;30;20040;-61
2021/08/31 00:48:46;;;;;;;40.85;23.02;;;;;;;16.99;88.42;99035.00;4735130;30;20052;-63
2021/08/31 00:51:13;;;;;;;44.58;25.20;;;;;;;16.97;88.36;99021.09;4749591;30;20466;-61
2021/08/31 00:53:48;;;;;;;47.22;24.88;;;;;;;16.94;88.37;99029.72;4749504;30;20088;-62
2021/08/31 00:56:13;;;;;;;41.97;23.42;;;;;;;16.90;88.12;99034.84;4734679;30;20066;-62
2021/08/31 00:58:40;;;;;;;36.88;22.92;;;;;;;16.85;87.67;99034.13;4750819;30;20098;-62
2021/08/31 01:01:05;;;;;;;38.80;22.63;;;;;;;16.87;87.87;99026.59;4750712;30;20044;-61
2021/08/31 01:03:32;;;;;;;40.42;23.73;;;;;;;16.86;87.81;99008.97;4750705;30;20048;-61
2021/08/31 01:06:01;;;;;;;43.22;23.90;;;;;;;16.80;88.17;99008.22;4720039;30;20511;-62
2021/08/31 01:08:28;;;;;;;51.88;28.05;;;;;;;16.84;88.22;99003.88;4734531;30;20596;-61
2021/08/31 01:10:59;;;;;;;47.30;27.15;;;;;;;16.76;88.08;99018.69;4750493;30;20478;-60
2021/08/31 01:13:27;;;;;;;45.20;27.95;;;;;;;16.75;87.95;99006.38;4750920;30;20416;-61
2021/08/31 01:15:53;;;;;;;51.25;27.55;;;;;;;16.74;88.40;98990.63;4720005;30;20044;-61
2021/08/31 01:18:22;;;;;;;49.25;28.27;;;;;;;16.75;88.10;99000.22;4734628;30;20070;-61
2021/08/31 01:20:49;;;;;;;53.22;30.13;;;;;;;16.72;88.43;99006.94;4749494;30;20143;-61
2021/08/31 01:23:15;;;;;;;51.97;29.35;;;;;;;16.68;88.48;99000.59;4750721;30;20044;-63
2021/08/31 01:25:43;;;;;;;52.47;26.75;;;;;;;16.65;88.45;99006.50;4750360;30;20079;-62
2021/08/31 01:28:15;;;;;;;55.70;29.52;;;;;;;16.63;88.83;99011.34;4750682;30;20094;-60
2021/08/31 01:30:41;;;;;;;54.50;29.00;;;;;;;16.64;88.68;99006.78;4734825;30;20052;-62
2021/08/31 01:33:09;;;;;;;54.35;28.25;;;;;;;16.64;88.79;99012.13;4750637;30;20566;-61
2021/08/31 01:35:35;;;;;;;56.72;30.02;;;;;;;16.64;88.55;99018.28;4750282;30;20095;-62
2021/08/31 01:38:01;;;;;;;53.72;27.92;;;;;;;16.68;88.34;99038.06;4750461;30;20131;-61
2021/08/31 01:40:27;;;;;;;54.55;27.75;;;;;;;16.71;88.49;99034.00;4750473;30;20052;-61
2021/08/31 01:42:53;;;;;;;52.97;27.85;;;;;;;16.66;88.34;99018.81;4750589;30;20117;-60
2021/08/31 01:45:19;;;;;;;52.13;26.83;;;;;;;16.69;88.40;99009.41;4750150;30;20523;-61
2021/08/31 01:47:44;;;;;;;50.97;26.90;;;;;;;16.63;88.39;99016.69;4749042;30;20164;-61
2021/08/31 01:50:10;;;;;;;54.90;27.80;;;;;;;16.59;88.38;99021.03;4750167;30;20102;-60
2021/08/31 01:52:37;;;;;;;51.53;28.23;;;;;;;16.63;88.54;99022.06;4735159;30;20048;-61
2021/08/31 01:55:06;;;;;;;54.90;27.75;;;;;;;16.65;88.46;99033.28;4753510;30;20060;-62
2021/08/31 01:57:31;;;;;;;51.28;26.95;;;;;;;16.62;88.71;99020.47;4752037;30;20056;-61
2021/08/31 01:59:57;;;;;;;47.50;24.52;;;;;;;16.64;88.16;99025.50;4753512;30;20400;-63
2021/08/31 02:02:23;;;;;;;52.33;26.50;;;;;;;16.61;88.47;99026.88;4722855;30;20458;-61
2021/08/31 02:04:49;;;;;;;50.83;26.48;;;;;;;16.62;88.49;99028.50;4753037;30;20222;-63
2021/08/31 02:07:14;;;;;;;47.42;27.58;;;;;;;16.64;88.33;99031.66;4753069;30;20601;-62
2021/08/31 02:09:40;;;;;;;50.10;26.85;;;;;;;16.67;88.11;99038.31;4753279;30;20064;-60
2021/08/31 02:12:06;;;;;;;49.05;26.20;;;;;;;16.66;88.15;99034.84;4736867;30;20539;-60
2021/08/31 02:14:33;;;;;;;47.80;26.20;;;;;;;16.66;88.24;99048.25;4752065;30;20139;-62
2021/08/31 02:16:59;;;;;;;50.92;25.45;;;;;;;16.60;88.16;99053.94;4751697;30;20044;-60
2021/08/31 02:19:25;;;;;;;48.75;26.42;;;;;;;16.58;88.01;99059.56;4752858;30;20063;-62
2021/08/31 02:21:50;;;;;;;48.00;24.80;;;;;;;16.53;88.27;99062.28;4751665;30;20097;-61
2021/08/31 02:24:16;;;;;;;49.80;26.33;;;;;;;16.55;88.09;99058.25;4751545;30;20080;-63
2021/08/31 02:26:42;;;;;;;46.72;22.98;;;;;;;16.57;87.86;99060.66;4752952;30;20054;-61
2021/08/31 02:29:08;;;;;;;47.17;23.90;;;;;;;16.52;88.16;99056.16;4752612;30;20052;-62
2021/08/31 02:31:34;;;;;;;48.15;23.75;;;;;;;16.47;88.17;99064.25;4751486;30;20041;-60
2021/08/31 02:33:59;;;;;;;48.03;24.33;;;;;;;16.47;88.65;99079.47;4736821;30;20048;-62
2021/08/31 02:36:25;;;;;;;47.35;23.38;;;;;;;16.44;89.29;99088.88;4752540;30;20052;-61
2021/08/31 02:38:51;;;;;;;49.80;23.30;;;;;;;16.40;89.20;99095.88;4752803;30;20393;-63
2021/08/31 02:41:17;;;;;;;50.55;25.02;;;;;;;16.40;89.12;99097.75;4736496;30;20051;-59
2021/08/31 02:43:42;;;;;;;46.35;23.38;;;;;;;16.35;89.56;99110.09;4752442;30;20059;-62
2021/08/31 02:46:09;;;;;;;45.13;22.40;;;;;;;16.29;89.14;99097.84;4736446;30;20265;-61
2021/08/31 02:48:35;;;;;;;44.50;21.33;;;;;;;16.29;88.79;99084.47;4752303;30;20155;-61
2021/08/31 02:51:01;;;;;;;47.20;21.77;;;;;;;16.31;89.02;99084.97;4751006;30;20139;-61
2021/08/31 02:53:28;;;;;;;36.55;18.08;;;;;;;16.29;88.45;99073.75;4736181;30;20064;-61
2021/08/31 02:55:54;;;;;;;46.35;21.58;;;;;;;16.25;89.08;99064.72;4752380;30;20103;-61
2021/08/31 02:58:20;;;;;;;44.83;20.67;;;;;;;16.23;89.21;99063.41;4752570;30;20063;-62
2021/08/31 03:00:53;;;;;;;47.97;20.38;;;;;;;16.20;89.11;99055.94;4736360;30;20530;-62
2021/08/31 03:03:19;;;;;;;42.67;20.02;;;;;;;16.16;88.80;99047.69;4752523;30;20495;-61
2021/08/31 03:05:47;;;;;;;38.95;19.70;;;;;;;16.17;89.18;99059.97;4721501;30;20526;-61
2021/08/31 03:08:12;;;;;;;43.22;20.23;;;;;;;16.16;89.35;99062.94;4736251;30;20162;-61
2021/08/31 03:10:38;;;;;;;41.75;18.27;;;;;;;16.12;89.24;99055.50;4750672;30;20139;-62
2021/08/31 03:13:04;;;;;;;45.60;21.92;;;;;;;16.11;89.72;99048.53;4736216;30;20503;-61
2021/08/31 03:15:30;;;;;;;47.15;20.02;;;;;;;16.09;89.13;99052.59;4751997;30;20100;-63
2021/08/31 03:17:56;;;;;;;43.42;20.65;;;;;;;16.09;89.33;99053.38;4752071;30;20531;-62
2021/08/31 03:20:23;;;;;;;44.83;21.40;;;;;;;16.08;89.56;99033.06;4752044;30;20060;-62
2021/08/31 03:22:48;;;;;;;44.90;20.35;;;;;;;16.05;89.73;99036.28;4752106;30;20048;-62
2021/08/31 03:25:14;;;;;;;43.72;19.95;;;;;;;16.04;89.73;99032.03;4750464;30;20052;-62
2021/08/31 03:27:40;;;;;;;42.03;20.38;;;;;;;16.02;89.88;99034.19;4752017;30;20109;-62
2021/08/31 03:30:06;;;;;;;45.00;20.83;;;;;;;16.03;89.98;99026.94;4751620;30;20526;-61
2021/08/31 03:32:32;;;;;;;51.35;21.35;;;;;;;16.07;89.75;99028.00;4751950;30;20049;-60
2021/08/31 03:34:57;;;;;;;48.90;21.40;;;;;;;16.06;89.74;99029.88;4751592;30;20147;-62
2021/08/31 03:37:23;;;;;;;47.30;23.70;;;;;;;16.07;89.70;99020.78;4751566;30;20052;-61
2021/08/31 03:39:49;;;;;;;51.25;22.33;;;;;;;16.11;89.74;99012.97;4735681;30;20056;-61
2021/08/31 03:42:15;;;;;;;51.42;21.88;;;;;;;16.12;89.61;99004.69;4751672;30;20080;-62
2021/08/31 03:44:40;;;;;;;48.35;23.15;;;;;;;16.09;89.71;99001.78;4750248;30;20444;-62
2021/08/31 03:47:06;;;;;;;39.85;20.13;;;;;;;16.17;89.65;99003.81;4751570;30;20097;-61
2021/08/31 03:49:32;;;;;;;39.65;19.85;;;;;;;16.20;89.34;98994.44;4751317;30;20052;-60
2021/08/31 03:51:58;;;;;;;39.38;19.80;;;;;;;16.20;89.27;99005.94;4735281;30;20476;-60
2021/08/31 03:54:23;;;;;;;39.20;19.17;;;;;;;16.20;89.03;99002.47;4751245;30;20110;-62
2021/08/31 03:56:49;;;;;;;36.83;19.52;;;;;;;16.24;89.19;98996.28;4751289;30;20052;-61
2021/08/31 03:59:15;;;;;;;40.55;20.02;;;;;;;16.27;89.19;98994.91;4751067;30;20056;-62
2021/08/31 04:01:40;;;;;;;35.67;18.73;;;;;;;16.31;88.74;98993.25;4750961;30;20063;-61
2021/08/31 04:04:06;;;;;;;35.97;19.20;;;;;;;16.27;88.42;98994.91;4751339;30;20138;-63
2021/08/31 04:06:32;;;;;;;35.65;19.35;;;;;;;16.30;88.54;98994.34;4750956;30;20338;-61
2021/08/31 04:08:58;;;;;;;32.20;18.48;;;;;;;16.29;87.98;98998.88;4734772;30;20068;-60
2021/08/31 04:11:23;;;;;;;27.10;17.00;;;;;;;16.29;88.40;98992.72;4751099;30;20056;-61
2021/08/31 04:13:49;;;;;;;28.65;16.95;;;;;;;16.32;88.09;98984.13;4750871;30;20476;-61
2021/08/31 04:16:15;;;;;;;27.92;17.27;;;;;;;16.36;87.76;98982.50;4734100;30;20139;-61
2021/08/31 04:18:41;;;;;;;25.65;15.70;;;;;;;16.38;87.66;98971.50;4749851;30;20408;-61
2021/08/31 04:21:06;;;;;;;27.33;17.23;;;;;;;16.40;87.82;98980.84;4746292;30;20075;-60
2021/08/31 04:23:32;;;;;;;36.03;18.20;;;;;;;16.41;87.90;98979.75;4734888;30;20044;-59
2021/08/31 04:25:58;;;;;;;30.98;18.00;;;;;;;16.46;87.76;98986.94;4750959;30;20056;-62
2021/08/31 04:28:24;;;;;;;25.20;16.92;;;;;;;16.50;87.31;98982.59;4750683;30;20052;-62
2021/08/31 04:30:49;;;;;;;23.88;14.55;;;;;;;16.56;86.72;98986.81;4719745;30;20427;-62
2021/08/31 04:33:15;;;;;;;20.65;14.00;;;;;;;16.54;85.99;98987.09;4750841;30;20492;-61
2021/08/31 04:35:41;;;;;;;21.33;14.38;;;;;;;16.60;85.73;98985.16;4750839;30;20266;-63
2021/08/31 04:38:07;;;;;;;21.27;14.13;;;;;;;16.63;85.66;98973.88;4750761;30;20083;-60
2021/08/31 04:40:32;;;;;;;25.45;15.10;;;;;;;16.66;85.52;98972.53;4750786;30;20056;-61
2021/08/31 04:42:58;;;;;;;22.45;13.63;;;;;;;16.69;85.23;98983.44;4734850;30;20063;-61
2021/08/31 04:45:24;;;;;;;20.27;13.30;;;;;;;16.76;85.01;98981.22;4750430;30;20546;-61
2021/08/31 04:47:50;;;;;;;22.77;13.90;;;;;;;16.82;84.69;98987.31;4720127;30;20091;-61
2021/08/31 04:50:15;;;;;;;21.80;12.85;;;;;;;16.73;84.70;98981.75;4751081;30;20059;-63
2021/08/31 04:52:41;;;;;;;24.80;13.63;;;;;;;16.64;84.94;98985.38;4750773;30;20048;-61
2021/08/31 04:55:08;;;;;;;20.33;13.60;;;;;;;16.63;85.08;98979.22;4750605;30;20135;-62
2021/08/31 04:57:33;;;;;;;21.05;14.02;;;;;;;16.58;85.24;98981.97;4750732;30;20423;-62
2021/08/31 05:00:00;;;;;;;23.20;14.40;;;;;;;16.56;85.50;98971.56;4750486;30;20056;-62
2021/08/31 05:02:26;;;;;;;25.70;15.15;;;;;;;16.54;85.77;98981.75;4734670;30;20071;-61
2021/08/31 05:04:52;;;;;;;23.42;14.35;;;;;;;16.56;85.81;98970.78;4750340;30;20503;-62
2021/08/31 05:07:17;;;;;;;23.17;14.80;;;;;;;16.57;85.63;98985.72;4750356;30;20052;-61
2021/08/31 05:09:43;;;;;;;25.10;15.65;;;;;;;16.56;85.23;98982.28;4750395;30;20052;-61
2021/08/31 05:12:10;;;;;;;24.10;14.93;;;;;;;16.60;85.44;98974.47;4749121;30;20094;-61
2021/08/31 05:14:36;;;;;;;22.42;14.90;;;;;;;16.56;85.24;98978.81;4750538;30;20107;-62
2021/08/31 05:17:02;;;;;;;25.17;15.13;;;;;;;16.54;85.65;98967.56;4750425;30;20514;-61
2021/08/31 05:19:28;;;;;;;24.83;15.18;;;;;;;16.58;85.43;98966.69;4734573;30;20423;-61
2021/08/31 05:21:54;;;;;;;26.30;16.45;;;;;;;16.66;85.30;98978.66;4719539;30;20507;-62
2021/08/31 05:24:20;;;;;;;26.05;15.02;;;;;;;16.66;85.11;98975.19;4748797;30;20064;-62
2021/08/31 05:26:45;;;;;;;23.83;15.93;;;;;;;16.65;85.15;98973.59;4734465;30;20048;-61
2021/08/31 05:29:11;;;;;;;25.40;15.70;;;;;;;16.67;85.61;98968.75;4753420;30;20052;-62
2021/08/31 05:31:37;;;;;;;24.85;16.27;;;;;;;16.70;85.27;98965.50;4753561;30;20547;-61
2021/08/31 05:34:03;;;;;;;23.20;15.07;;;;;;;16.74;84.71;98964.66;4753654;30;20049;-62
2021/08/31 05:36:29;;;;;;;29.23;15.80;;;;;;;16.66;84.84;98953.78;4753356;30;20056;-63
2021/08/31 05:38:55;;;;;;;27.48;15.98;;;;;;;16.65;84.96;98949.50;4722906;30;20083;-63
2021/08/31 05:41:21;;;;;;;24.92;16.25;;;;;;;16.70;85.17;98954.78;4737392;30;20103;-61
2021/08/31 05:43:47;;;;;;;24.85;15.27;;;;;;;16.70;84.70;98955.59;4753653;30;20044;-63
2021/08/31 05:46:12;;;;;;;25.92;15.95;;;;;;;16.73;85.10;98954.22;4753496;30;20048;-62
2021/08/31 05:48:38;;;;;;;25.27;15.30;;;;;;;16.77;84.76;98955.28;4753279;30;20623;-62
2021/08/31 05:51:07;;;;;;;26.73;16.10;;;;;;;16.83;84.30;98962.16;4736954;30;20052;-62
2021/08/31 05:53:33;;;;;;;25.13;16.45;;;;;;;16.86;84.22;98950.06;4752951;30;20054;-62
2021/08/31 05:56:00;;;;;;;28.73;16.17;;;;;;;16.83;84.12;98945.31;4753021;30;20076;-62
2021/08/31 05:58:25;;;;;;;24.17;16.70;;;;;;;16.86;84.02;98952.75;4737135;30;20097;-62
2021/08/31 06:00:51;;;;;;;27.77;16.83;;;;;;;16.92;83.92;98957.75;4751882;30;20048;-64
2021/08/31 06:03:18;;;;;;;25.85;15.65;;;;;;;16.99;83.55;98946.66;4753357;30;20199;-62
2021/08/31 06:05:44;;;;;;;27.63;15.43;;;;;;;16.98;83.33;98939.72;4751735;30;20052;-63
2021/08/31 06:08:10;;;;;;;26.10;15.93;;;;;;;17.06;83.16;98948.97;4736007;30;20068;-62
2021/08/31 06:10:36;;;;;;;23.67;15.88;;;;;;;17.14;82.73;98946.44;4748394;30;20063;-62
2021/08/31 06:13:02;;;;;;;26.08;16.83;;;;;;;17.12;82.31;98953.97;4746985;30;20143;-62
2021/08/31 06:15:28;;;;;;;24.00;15.27;;;;;;;17.05;82.81;98940.13;4750692;30;20135;-61
2021/08/31 06:17:54;;;;;;;25.40;16.58;;;;;;;17.04;83.08;98946.59;4735347;30;20503;-61
2021/08/31 06:20:19;;;;;;;22.83;14.20;;;;;;;16.99;82.80;98942.09;4749344;30;20518;-60
2021/08/31 06:22:46;;;;;;;27.60;17.05;;;;;;;17.02;83.02;98941.50;4751296;30;20052;-60
2021/08/31 06:25:12;;;;;;;24.42;16.38;;;;;;;17.01;83.20;98941.81;4749935;30;20063;-62
2021/08/31 06:27:37;;;;;;;25.27;16.00;;;;;;;17.03;83.19;98937.78;4750465;30;20060;-63
2021/08/31 06:30:04;;;;;;;24.70;15.38;;;;;;;17.12;82.88;98929.06;4748935;30;20416;-60
2021/08/31 06:32:29;;;;;;;28.50;17.08;;;;;;;17.22;82.19;98934.25;4733568;30;20404;-60
2021/08/31 06:34:55;;;;;;;23.45;16.13;;;;;;;17.37;81.68;98928.66;4748681;30;20150;-61
2021/08/31 06:37:21;;;;;;;23.85;15.85;;;;;;;17.40;80.64;98930.75;4750858;30;20060;-60
2021/08/31 06:39:47;;;;;;;23.20;15.93;;;;;;;17.37;80.90;98928.66;4748794;30;20048;-61
2021/08/31 06:42:13;;;;;;;26.33;15.02;;;;;;;17.38;81.08;98924.91;4751381;30;20044;-60
2021/08/31 06:44:39;;;;;;;23.95;15.65;;;;;;;17.44;80.45;98929.09;4750391;30;20060;-60
2021/08/31 06:47:05;;;;;;;22.42;15.68;;;;;;;17.49;80.50;98928.97;4750346;30;20056;-60
2021/08/31 06:49:32;;;;;;;26.52;16.02;;;;;;;17.56;79.94;98928.63;4747898;30;20071;-62
2021/08/31 06:51:59;;;;;;;24.05;18.10;;;;;;;17.61;79.78;98928.50;4749777;30;20242;-60
2021/08/31 06:54:25;;;;;;;29.23;18.50;;;;;;;17.66;79.44;98927.66;4763010;30;20488;-59
2021/08/31 06:56:51;;;;;;;27.10;17.90;;;;;;;17.71;79.37;98933.72;4749193;30;20072;-60
2021/08/31 06:59:17;;;;;;;29.23;19.67;;;;;;;17.73;79.49;98935.28;4733031;30;20531;-62
2021/08/31 07:01:43;;;;;;;26.80;17.55;;;;;;;17.66;79.33;98928.44;4747479;30;20495;-60
2021/08/31 07:04:09;;;;;;;28.27;17.13;;;;;;;17.66;79.69;98920.41;4748027;30;20060;-61
2021/08/31 07:06:34;;;;;;;24.80;16.05;;;;;;;17.70;79.68;98928.63;4747489;30;20051;-60
2021/08/31 07:09:02;;;;;;;24.90;16.80;;;;;;;17.80;79.27;98916.97;4733595;30;20074;-61
2021/08/31 07:11:28;;;;;;;26.13;15.98;;;;;;;17.99;78.91;98917.69;4762710;30;20457;-61
2021/08/31 07:13:54;;;;;;;23.15;16.67;;;;;;;18.14;78.24;98912.00;4746393;30;20048;-61
2021/08/31 07:16:26;;;;;;;24.33;16.17;;;;;;;18.26;77.88;98916.09;4746227;30;20147;-59
2021/08/31 07:18:52;;;;;;;22.50;15.18;;;;;;;18.40;77.26;98903.44;4732169;30;20151;-61
2021/08/31 07:21:18;;;;;;;22.85;15.13;;;;;;;18.74;76.10;98903.03;4749124;30;20889;-60
2021/08/31 07:23:44;;;;;;;20.58;14.02;;;;;;;18.87;75.90;98896.00;4748307;30;20550;-62
2021/08/31 07:26:10;;;;;;;22.48;16.92;;;;;;;18.96;75.63;98896.06;4734655;30;20048;-61
2021/08/31 07:28:36;;;;;;;24.45;15.57;;;;;;;18.97;74.99;98894.97;4748341;30;20427;-62
2021/08/31 07:31:02;;;;;;;21.65;14.55;;;;;;;19.08;74.49;98896.31;4748937;30;20130;-60
2021/08/31 07:33:28;;;;;;;25.30;15.20;;;;;;;19.12;74.36;98891.13;4748274;30;20048;-61
2021/08/31 07:35:53;;;;;;;23.50;15.20;;;;;;;19.26;74.04;98884.59;4733962;30;20423;-61
2021/08/31 07:38:19;;;;;;;22.40;15.50;;;;;;;19.24;73.98;98894.06;4732929;30;20440;-61
2021/08/31 07:40:45;;;;;;;18.05;13.27;;;;;;;19.29;73.85;98892.06;4733653;30;20052;-61
2021/08/31 07:43:11;;;;;;;24.73;14.68;;;;;;;19.52;73.53;98884.72;4748166;30;20400;-61
2021/08/31 07:45:37;;;;;;;22.92;15.70;;;;;;;19.46;72.60;98880.59;4749033;30;20110;-62
2021/08/31 07:48:03;;;;;;;21.25;15.18;;;;;;;19.21;72.76;98886.63;4732285;30;20187;-60
2021/08/31 07:50:29;;;;;;;24.45;15.77;;;;;;;18.96;73.26;98874.59;4744807;30;20534;-62
2021/08/31 07:52:55;;;;;;;24.98;16.50;;;;;;;18.99;73.86;98885.50;4724046;30;20094;-61
2021/08/31 07:55:21;;;;;;;26.27;16.55;;;;;;;18.84;74.03;98889.34;4720731;30;20152;-61
2021/08/31 07:57:47;;;;;;;23.42;16.15;;;;;;;18.83;74.29;98887.78;4744995;30;20222;-60
2021/08/31 08:00:16;;;;;;;23.52;16.70;;;;;;;18.81;74.45;98878.44;4730803;30;20139;-61
2021/08/31 08:02:42;;;;;;;21.42;16.95;;;;;;;18.83;74.44;98885.09;4731323;30;20102;-60
2021/08/31 08:05:10;;;;;;;24.35;15.02;;;;;;;18.91;74.98;98885.44;4744052;30;20056;-59
2021/08/31 08:07:36;;;;;;;24.40;16.73;;;;;;;18.91;74.80;98883.53;4730396;30;20095;-60
2021/08/31 08:10:03;;;;;;;23.80;17.25;;;;;;;18.97;74.74;98874.31;4729620;30;20599;-62
2021/08/31 08:12:28;;;;;;;24.65;16.98;;;;;;;19.03;74.37;98880.31;4729452;30;20048;-61
2021/08/31 08:14:55;;;;;;;22.48;16.67;;;;;;;18.98;74.48;98867.03;4744759;30;20549;-60
2021/08/31 08:17:22;;;;;;;25.23;17.50;;;;;;;18.99;74.69;98868.59;4730979;30;20076;-60
2021/08/31 08:19:53;;;;;;;27.08;17.17;;;;;;;19.00;74.85;98870.19;4729259;30;20059;-61
2021/08/31 08:22:22;;;;;;;29.13;18.58;;;;;;;19.02;74.89;98860.72;4713862;30;20571;-60
2021/08/31 08:24:48;;;;;;;26.05;19.48;;;;;;;19.08;74.53;98872.16;4748834;30;20052;-60
2021/08/31 08:27:14;;;;;;;23.55;17.88;;;;;;;19.18;74.51;98853.09;4739615;30;20058;-61
2021/08/31 08:29:40;;;;;;;25.33;18.20;;;;;;;19.25;74.33;98855.34;4729661;30;20049;-61
2021/08/31 08:32:11;;;;;;;28.15;19.05;;;;;;;19.33;74.20;98859.97;4714839;30;20053;-61
2021/08/31 08:34:38;;;;;;;24.10;17.88;;;;;;;19.33;74.50;98853.81;4742895;30;20048;-62
2021/08/31 08:37:04;;;;;;;25.33;18.13;;;;;;;19.41;74.43;98848.50;4728416;30;20424;-61
2021/08/31 08:39:31;;;;;;;27.95;19.80;;;;;;;19.54;73.91;98837.94;4727878;30;20084;-61
2021/08/31 08:41:57;;;;;;;35.97;19.95;;;;;;;19.61;72.77;98844.44;4728456;30;20135;-62
2021/08/31 08:44:26;;;;;;;29.35;19.25;;;;;;;19.63;71.66;98839.56;4728872;30;20527;-62
2021/08/31 08:46:53;;;;;;;25.10;18.33;;;;;;;19.62;71.16;98839.88;4728798;30;20052;-61
2021/08/31 08:49:19;;;;;;;26.70;19.10;;;;;;;19.49;70.22;98833.50;4728088;30;20159;-63
2021/08/31 08:51:45;;;;;;;23.95;17.90;;;;;;;19.50;70.37;98832.38;4729778;30;20238;-61
2021/08/31 08:54:11;;;;;;;26.33;17.42;;;;;;;19.44;70.87;98829.06;4728779;30;20060;-62
2021/08/31 08:56:37;;;;;;;36.47;18.48;;;;;;;19.49;71.22;98823.53;4698210;30;20099;-61
2021/08/31 08:59:03;;;;;;;25.15;17.95;;;;;;;19.59;70.84;98821.66;4712290;30;20059;-63
2021/08/31 09:01:56;;;;;;;32.67;18.33;;;;;;;19.68;70.77;98812.56;4727290;30;20045;-62
2021/08/31 09:04:49;;;;;;;25.95;17.20;;;;;;;19.72;69.98;98808.16;4701814;30;20109;-61
2021/08/31 09:07:26;;;;;;;22.23;17.05;;;;;;;19.77;70.24;98803.75;4742440;30;20064;-63
2021/08/31 09:10:20;;;;;;;23.27;16.33;;;;;;;19.82;70.09;98807.06;4733294;30;20066;-60
2021/08/31 09:13:14;;;;;;;20.02;15.77;;;;;;;19.82;69.62;98800.91;4749784;30;20044;-60
2021/08/31 09:16:28;;;;;;;24.38;15.35;;;;;;;19.83;69.07;98805.97;4736589;30;20051;-61
2021/08/31 09:18:56;;;;;;;20.30;14.75;;;;;;;19.88;68.80;98797.78;4730419;30;20064;-62
2021/08/31 09:21:24;;;;;;;24.38;14.32;;;;;;;19.98;68.98;98803.97;4733840;30;20099;-60
2021/08/31 09:23:53;;;;;;;20.75;14.48;;;;;;;20.03;68.79;98793.84;4734107;30;20135;-62
2021/08/31 09:26:34;;;;;;;25.17;15.80;;;;;;;20.08;69.25;98795.56;4718275;30;20071;-62
2021/08/31 09:29:11;;;;;;;22.88;14.98;;;;;;;20.18;69.25;98788.00;4746781;30;20136;-61
2021/08/31 09:31:47;;;;;;;20.35;13.80;;;;;;;20.35;68.18;98784.53;4731264;30;20063;-62
2021/08/31 09:34:35;;;;;;;20.98;13.77;;;;;;;20.45;67.74;98793.41;4731474;30;20103;-62
2021/08/31 09:37:28;;;;;;;17.30;13.70;;;;;;;20.53;67.72;98792.63;4730553;30;20090;-63
2021/08/31 09:40:01;;;;;;;18.45;13.18;;;;;;;20.60;67.25;98798.31;4745450;30;20143;-61
2021/08/31 09:42:27;;;;;;;24.27;14.48;;;;;;;20.60;67.10;98795.63;4731460;30;20523;-60
2021/08/31 09:45:04;;;;;;;20.60;13.57;;;;;;;20.68;67.00;98796.72;4731350;30;20056;-62
2021/08/31 09:47:37;;;;;;;20.00;13.02;;;;;;;20.74;66.81;98785.50;4731231;30;20053;-61
2021/08/31 09:50:04;;;;;;;23.77;13.30;;;;;;;20.82;66.62;98786.56;4744963;30;20496;-61
2021/08/31 09:52:30;;;;;;;17.38;12.60;;;;;;;20.86;66.71;98776.75;4729636;30;20059;-63
2021/08/31 09:54:57;;;;;;;24.20;13.73;;;;;;;20.98;66.44;98776.88;4731377;30;20465;-62
2021/08/31 09:57:25;;;;;;;18.10;11.65;;;;;;;21.05;64.25;98785.25;4734306;30;20069;-62
2021/08/31 09:59:51;;;;;;;19.60;12.65;;;;;;;21.12;63.46;98774.00;4717397;30;20060;-62
2021/08/31 10:02:17;;;;;;;18.95;12.10;;;;;;;21.18;63.16;98788.88;4732583;30;20045;-64
2021/08/31 10:04:43;;;;;;;19.13;12.02;;;;;;;21.23;63.59;98790.59;4734321;30;20049;-65
2021/08/31 10:07:09;;;;;;;19.52;11.50;;;;;;;21.30;64.16;98778.22;4732567;30;20412;-63
2021/08/31 10:09:38;;;;;;;21.80;12.32;;;;;;;21.48;64.11;98788.97;4733461;30;20515;-65
2021/08/31 10:12:08;;;;;;;20.02;12.15;;;;;;;21.54;63.94;98784.97;4747646;30;20044;-62
2021/08/31 10:14:44;;;;;;;18.30;11.13;;;;;;;21.56;62.98;98788.13;4733467;30;20056;-64
2021/08/31 10:17:14;;;;;;;17.23;11.05;;;;;;;21.61;63.04;98782.53;4732268;30;20053;-65
2021/08/31 10:19:43;;;;;;;;;;;;;;;21.68;62.78;98780.13;4734486;30;20088;-63
2021/08/31 10:22:13;;;;;;;17.70;11.00;;;;;;;21.75;63.18;98787.72;4716650;30;19926;-64
2021/08/31 10:24:43;;;;;;;20.40;12.00;;;;;;;21.78;62.92;98778.97;4733362;30;20049;-64
2021/08/31 10:27:35;;;;;;;17.45;12.10;;;;;;;21.89;62.63;98782.09;4732810;30;20057;-60
2021/08/31 10:30:21;;;;;;;16.30;10.95;;;;;;;21.90;61.67;98789.84;4732237;30;20053;-62
2021/08/31 10:32:51;;;;;;;16.40;10.43;;;;;;;21.95;61.29;98778.06;4734304;30;20416;-61
2021/08/31 10:35:30;;;;;;;15.73;11.77;;;;;;;22.08;62.24;98777.03;4747003;30;20278;-62
2021/08/31 10:37:57;;;;;;;18.40;11.10;;;;;;;22.15;60.14;98773.81;4732120;30;20052;-62
2021/08/31 10:40:40;;;;;;;22.88;12.13;;;;;;;22.22;58.14;98772.19;4731747;30;20053;-61
2021/08/31 10:43:20;;;;;;;19.13;12.27;;;;;;;22.32;58.11;98768.28;4733856;30;20082;-63
2021/08/31 10:45:54;;;;;;;20.83;12.20;;;;;;;22.38;57.93;98758.88;4748613;30;20087;-59
2021/08/31 10:48:23;;;;;;;17.40;11.57;;;;;;;22.45;57.93;98761.84;4749849;30;20642;-65
2021/08/31 10:50:49;;;;;;;15.27;11.65;;;;;;;22.51;57.99;98770.53;4749773;30;20133;-62
2021/08/31 10:53:34;;;;;;;17.10;11.85;;;;;;;22.58;57.74;98768.06;4733404;30;20529;-62
2021/08/31 10:56:20;;;;;;;21.13;12.35;;;;;;;22.67;57.97;98765.28;4734402;30;20052;-62
2021/08/31 10:58:47;;;;;;;18.98;12.38;;;;;;;22.78;56.30;98773.78;4750639;30;20362;-60
2021/08/31 11:01:15;;;;;;;16.60;11.73;;;;;;;22.84;56.17;98770.53;4748578;30;20048;-61
2021/08/31 11:03:42;;;;;;;21.85;13.55;;;;;;;22.91;56.30;98772.66;4750633;30;20099;-61
2021/08/31 11:06:18;;;;;;;23.42;12.48;;;;;;;22.99;56.81;98762.94;4734967;30;20569;-61
2021/08/31 11:09:04;;;;;;;18.02;12.43;;;;;;;23.18;55.52;98762.38;4731692;30;20075;-62
2021/08/31 11:11:30;;;;;;;21.88;13.02;;;;;;;23.38;55.49;98756.09;4747995;30;20052;-61
2021/08/31 11:13:57;;;;;;;18.25;13.07;;;;;;;23.56;53.85;98754.78;4749071;30;20431;-63
2021/08/31 11:16:27;;;;;;;16.40;12.25;;;;;;;23.71;52.89;98753.31;4748207;30;20052;-62
2021/08/31 11:18:53;;;;;;;20.02;13.02;;;;;;;23.85;52.88;98749.47;4718632;30;20056;-63
2021/08/31 11:21:19;;;;;;;18.98;13.20;;;;;;;23.89;52.18;98743.03;4749894;30;20097;-63